sensor_id;sensor_type;location;lat;lon;timestamp;temperature;humidity
3842;DHT22;1936;47.074;15.336;2024-01-30T00:00:21;-3.90;99.90
3842;DHT22;1936;47.074;15.336;2024-01-30T00:02:25;-3.90;99.90
3842;DHT22;1936;47.074;15.336;2024-01-30T00:04:28;-3.80;99.90
3842;DHT22;1936;47.074;15.336;2024-01-30T00:06:32;-3.90;99.90
3842;DHT22;1936;47.074;15.336;2024-01-30T00:08:35;-3.80;99.90
3842;DHT22;1936;47.074;15.336;2024-01-30T00:10:38;-3.80;99.90
3842;DHT22;1936;47.074;15.336;2024-01-30T00:12:44;-3.80;99.90
3842;DHT22;1936;47.074;15.336;2024-01-30T00:14:48;-3.80;99.90
3842;DHT22;1936;47.074;15.336;2024-01-30T00:16:56;-3.80;99.90
3842;DHT22;1936;47.074;15.336;2024-01-30T00:18:59;-3.80;99.90
3842;DHT22;1936;47.074;15.336;2024-01-30T00:21:04;-3.80;99.90
3842;DHT22;1936;47.074;15.336;2024-01-30T00:23:08;-3.70;99.90
3842;DHT22;1936;47.074;15.336;2024-01-30T00:25:11;-3.80;99.90
3842;DHT22;1936;47.074;15.336;2024-01-30T00:27:15;-3.90;99.90
3842;DHT22;1936;47.074;15.336;2024-01-30T00:29:20;-4.00;99.90
3842;DHT22;1936;47.074;15.336;2024-01-30T00:31:25;-4.00;99.90
3842;DHT22;1936;47.074;15.336;2024-01-30T00:33:28;-4.10;99.90
3842;DHT22;1936;47.074;15.336;2024-01-30T00:35:32;-4.10;99.90
3842;DHT22;1936;47.074;15.336;2024-01-30T00:37:35;-4.20;99.90
3842;DHT22;1936;47.074;15.336;2024-01-30T00:39:38;-4.20;99.90
3842;DHT22;1936;47.074;15.336;2024-01-30T00:41:42;-4.20;99.90
3842;DHT22;1936;47.074;15.336;2024-01-30T00:43:45;-4.20;99.90
3842;DHT22;1936;47.074;15.336;2024-01-30T00:45:50;-4.10;99.90
3842;DHT22;1936;47.074;15.336;2024-01-30T00:47:54;-4.00;99.90
3842;DHT22;1936;47.074;15.336;2024-01-30T00:49:58;-4.00;99.90
3842;DHT22;1936;47.074;15.336;2024-01-30T00:52:01;-4.10;99.90
3842;DHT22;1936;47.074;15.336;2024-01-30T00:54:05;-4.10;99.90
3842;DHT22;1936;47.074;15.336;2024-01-30T00:56:08;-4.10;99.90
3842;DHT22;1936;47.074;15.336;2024-01-30T00:58:12;-4.10;99.90
3842;DHT22;1936;47.074;15.336;2024-01-30T01:00:16;-4.10;99.90
3842;DHT22;1936;47.074;15.336;2024-01-30T01:02:21;-3.90;99.90
3842;DHT22;1936;47.074;15.336;2024-01-30T01:04:24;-3.90;99.90
3842;DHT22;1936;47.074;15.336;2024-01-30T01:06:29;-3.90;99.90
3842;DHT22;1936;47.074;15.336;2024-01-30T01:08:33;-4.00;99.90
3842;DHT22;1936;47.074;15.336;2024-01-30T01:10:36;-4.10;99.90
3842;DHT22;1936;47.074;15.336;2024-01-30T01:12:40;-4.20;99.90
3842;DHT22;1936;47.074;15.336;2024-01-30T01:14:43;-4.20;99.90
3842;DHT22;1936;47.074;15.336;2024-01-30T01:16:47;-4.30;99.90
3842;DHT22;1936;47.074;15.336;2024-01-30T01:18:52;-4.30;99.90
3842;DHT22;1936;47.074;15.336;2024-01-30T01:20:55;-4.30;99.90
3842;DHT22;1936;47.074;15.336;2024-01-30T01:22:59;-4.30;99.90
3842;DHT22;1936;47.074;15.336;2024-01-30T01:25:03;-4.30;99.90
3842;DHT22;1936;47.074;15.336;2024-01-30T01:27:06;-4.40;99.90
3842;DHT22;1936;47.074;15.336;2024-01-30T01:29:09;-4.30;99.90
3842;DHT22;1936;47.074;15.336;2024-01-30T01:31:14;-4.30;99.90
3842;DHT22;1936;47.074;15.336;2024-01-30T01:33:17;-4.30;99.90
3842;DHT22;1936;47.074;15.336;2024-01-30T01:35:23;-4.30;99.90
3842;DHT22;1936;47.074;15.336;2024-01-30T01:37:27;-4.30;99.90
3842;DHT22;1936;47.074;15.336;2024-01-30T01:39:31;-4.20;99.90
3842;DHT22;1936;47.074;15.336;2024-01-30T01:41:34;-4.20;99.90
3842;DHT22;1936;47.074;15.336;2024-01-30T01:45:42;-4.30;99.90
3842;DHT22;1936;47.074;15.336;2024-01-30T01:47:48;-4.30;99.90
3842;DHT22;1936;47.074;15.336;2024-01-30T01:49:53;-4.30;99.90
3842;DHT22;1936;47.074;15.336;2024-01-30T01:51:59;-4.30;99.90
3842;DHT22;1936;47.074;15.336;2024-01-30T01:54:04;-4.30;99.90
3842;DHT22;1936;47.074;15.336;2024-01-30T01:56:08;-4.40;99.90
3842;DHT22;1936;47.074;15.336;2024-01-30T01:58:13;-4.40;99.90
3842;DHT22;1936;47.074;15.336;2024-01-30T02:00:18;-4.40;99.90
3842;DHT22;1936;47.074;15.336;2024-01-30T02:02:23;-4.40;99.90
3842;DHT22;1936;47.074;15.336;2024-01-30T02:04:28;-4.30;99.90
3842;DHT22;1936;47.074;15.336;2024-01-30T02:06:32;-4.20;99.90
3842;DHT22;1936;47.074;15.336;2024-01-30T02:08:38;-4.20;99.90
3842;DHT22;1936;47.074;15.336;2024-01-30T02:10:42;-4.20;99.90
3842;DHT22;1936;47.074;15.336;2024-01-30T02:12:45;-4.30;99.90
3842;DHT22;1936;47.074;15.336;2024-01-30T02:14:49;-4.30;99.90
3842;DHT22;1936;47.074;15.336;2024-01-30T02:16:52;-4.40;99.90
3842;DHT22;1936;47.074;15.336;2024-01-30T02:18:55;-4.50;99.90
3842;DHT22;1936;47.074;15.336;2024-01-30T02:20:58;-4.40;99.90
3842;DHT22;1936;47.074;15.336;2024-01-30T02:23:06;-4.40;99.90
3842;DHT22;1936;47.074;15.336;2024-01-30T02:25:10;-4.50;99.90
3842;DHT22;1936;47.074;15.336;2024-01-30T02:27:14;-4.50;99.90
3842;DHT22;1936;47.074;15.336;2024-01-30T02:29:17;-4.50;99.90
3842;DHT22;1936;47.074;15.336;2024-01-30T02:31:21;-4.60;99.90
3842;DHT22;1936;47.074;15.336;2024-01-30T02:33:24;-4.70;99.90
3842;DHT22;1936;47.074;15.336;2024-01-30T02:35:27;-4.70;99.90
3842;DHT22;1936;47.074;15.336;2024-01-30T02:37:31;-4.70;99.90
3842;DHT22;1936;47.074;15.336;2024-01-30T02:39:35;-4.70;99.90
3842;DHT22;1936;47.074;15.336;2024-01-30T02:41:39;-4.80;99.90
3842;DHT22;1936;47.074;15.336;2024-01-30T02:43:42;-4.70;99.90
3842;DHT22;1936;47.074;15.336;2024-01-30T02:45:46;-4.70;99.90
3842;DHT22;1936;47.074;15.336;2024-01-30T02:47:49;-4.70;99.90
3842;DHT22;1936;47.074;15.336;2024-01-30T02:49:53;-4.50;99.90
3842;DHT22;1936;47.074;15.336;2024-01-30T02:51:57;-4.60;99.90
3842;DHT22;1936;47.074;15.336;2024-01-30T02:54:01;-4.60;99.90
3842;DHT22;1936;47.074;15.336;2024-01-30T02:56:06;-4.60;99.90
3842;DHT22;1936;47.074;15.336;2024-01-30T02:58:11;-4.60;99.90
3842;DHT22;1936;47.074;15.336;2024-01-30T03:00:15;-4.60;99.90
3842;DHT22;1936;47.074;15.336;2024-01-30T03:02:18;-4.60;99.90
3842;DHT22;1936;47.074;15.336;2024-01-30T03:04:21;-4.50;99.90
3842;DHT22;1936;47.074;15.336;2024-01-30T03:06:24;-4.60;99.90
3842;DHT22;1936;47.074;15.336;2024-01-30T03:08:28;-4.60;99.90
3842;DHT22;1936;47.074;15.336;2024-01-30T03:10:31;-4.60;99.90
3842;DHT22;1936;47.074;15.336;2024-01-30T03:12:36;-4.50;99.90
3842;DHT22;1936;47.074;15.336;2024-01-30T03:14:39;-4.50;99.90
3842;DHT22;1936;47.074;15.336;2024-01-30T03:16:43;-4.60;99.90
3842;DHT22;1936;47.074;15.336;2024-01-30T03:18:46;-4.60;99.90
3842;DHT22;1936;47.074;15.336;2024-01-30T03:20:50;-4.70;99.90
3842;DHT22;1936;47.074;15.336;2024-01-30T03:22:55;-4.80;99.90
3842;DHT22;1936;47.074;15.336;2024-01-30T03:24:59;-4.90;99.90
3842;DHT22;1936;47.074;15.336;2024-01-30T03:27:02;-4.80;99.90
3842;DHT22;1936;47.074;15.336;2024-01-30T03:29:07;-4.80;99.90
3842;DHT22;1936;47.074;15.336;2024-01-30T03:31:13;-4.80;99.90
3842;DHT22;1936;47.074;15.336;2024-01-30T03:33:17;-4.90;99.90
3842;DHT22;1936;47.074;15.336;2024-01-30T03:35:20;-5.00;99.90
3842;DHT22;1936;47.074;15.336;2024-01-30T03:37:23;-4.90;99.90
3842;DHT22;1936;47.074;15.336;2024-01-30T03:39:27;-4.90;99.90
3842;DHT22;1936;47.074;15.336;2024-01-30T03:41:30;-4.90;99.90
3842;DHT22;1936;47.074;15.336;2024-01-30T03:43:34;-5.00;99.90
3842;DHT22;1936;47.074;15.336;2024-01-30T03:45:39;-5.10;99.90
3842;DHT22;1936;47.074;15.336;2024-01-30T03:47:43;-5.10;99.90
3842;DHT22;1936;47.074;15.336;2024-01-30T03:49:47;-5.00;99.90
3842;DHT22;1936;47.074;15.336;2024-01-30T03:51:51;-4.80;99.90
3842;DHT22;1936;47.074;15.336;2024-01-30T03:53:54;-4.80;99.90
3842;DHT22;1936;47.074;15.336;2024-01-30T03:55:58;-4.90;99.90
3842;DHT22;1936;47.074;15.336;2024-01-30T03:58:01;-5.00;99.90
3842;DHT22;1936;47.074;15.336;2024-01-30T04:00:05;-5.00;99.90
3842;DHT22;1936;47.074;15.336;2024-01-30T04:02:11;-5.00;99.90
3842;DHT22;1936;47.074;15.336;2024-01-30T04:04:15;-5.10;99.90
3842;DHT22;1936;47.074;15.336;2024-01-30T04:06:18;-5.10;99.90
3842;DHT22;1936;47.074;15.336;2024-01-30T04:08:21;-5.10;99.90
3842;DHT22;1936;47.074;15.336;2024-01-30T04:10:25;-5.20;99.90
3842;DHT22;1936;47.074;15.336;2024-01-30T04:12:27;-5.20;99.90
3842;DHT22;1936;47.074;15.336;2024-01-30T04:14:31;-5.10;99.90
3842;DHT22;1936;47.074;15.336;2024-01-30T04:16:34;-5.10;99.90
3842;DHT22;1936;47.074;15.336;2024-01-30T04:18:39;-5.10;99.90
3842;DHT22;1936;47.074;15.336;2024-01-30T04:20:43;-5.20;99.90
3842;DHT22;1936;47.074;15.336;2024-01-30T04:22:46;-5.20;99.90
3842;DHT22;1936;47.074;15.336;2024-01-30T04:24:50;-5.10;99.90
3842;DHT22;1936;47.074;15.336;2024-01-30T04:26:52;-5.10;99.90
3842;DHT22;1936;47.074;15.336;2024-01-30T04:28:55;-5.10;99.90
3842;DHT22;1936;47.074;15.336;2024-01-30T04:30:59;-5.10;99.90
3842;DHT22;1936;47.074;15.336;2024-01-30T04:33:02;-5.10;99.90
3842;DHT22;1936;47.074;15.336;2024-01-30T04:35:08;-5.10;99.90
3842;DHT22;1936;47.074;15.336;2024-01-30T04:37:13;-5.00;99.90
3842;DHT22;1936;47.074;15.336;2024-01-30T04:39:16;-5.00;99.90
3842;DHT22;1936;47.074;15.336;2024-01-30T04:41:19;-5.00;99.90
3842;DHT22;1936;47.074;15.336;2024-01-30T04:43:22;-5.00;99.90
3842;DHT22;1936;47.074;15.336;2024-01-30T04:45:26;-4.90;99.90
3842;DHT22;1936;47.074;15.336;2024-01-30T04:47:29;-5.00;99.90
3842;DHT22;1936;47.074;15.336;2024-01-30T04:49:32;-5.10;99.90
3842;DHT22;1936;47.074;15.336;2024-01-30T04:51:37;-5.20;99.90
3842;DHT22;1936;47.074;15.336;2024-01-30T04:53:41;-5.30;99.90
3842;DHT22;1936;47.074;15.336;2024-01-30T04:55:44;-5.30;99.90
3842;DHT22;1936;47.074;15.336;2024-01-30T04:57:48;-5.30;99.90
3842;DHT22;1936;47.074;15.336;2024-01-30T04:59:52;-5.40;99.90
3842;DHT22;1936;47.074;15.336;2024-01-30T05:01:55;-5.40;99.90
3842;DHT22;1936;47.074;15.336;2024-01-30T05:03:59;-5.30;99.90
3842;DHT22;1936;47.074;15.336;2024-01-30T05:06:01;-5.30;99.90
3842;DHT22;1936;47.074;15.336;2024-01-30T05:08:06;-5.30;99.90
3842;DHT22;1936;47.074;15.336;2024-01-30T05:10:10;-5.30;99.90
3842;DHT22;1936;47.074;15.336;2024-01-30T05:12:13;-5.30;99.90
3842;DHT22;1936;47.074;15.336;2024-01-30T05:14:17;-5.30;99.90
3842;DHT22;1936;47.074;15.336;2024-01-30T05:16:20;-5.30;99.90
3842;DHT22;1936;47.074;15.336;2024-01-30T05:18:24;-5.30;99.90
3842;DHT22;1936;47.074;15.336;2024-01-30T05:20:27;-5.30;99.90
3842;DHT22;1936;47.074;15.336;2024-01-30T05:22:31;-5.20;99.90
3842;DHT22;1936;47.074;15.336;2024-01-30T05:24:35;-5.20;99.90
3842;DHT22;1936;47.074;15.336;2024-01-30T05:26:39;-5.20;99.90
3842;DHT22;1936;47.074;15.336;2024-01-30T05:28:42;-5.10;99.90
3842;DHT22;1936;47.074;15.336;2024-01-30T05:30:46;-5.20;99.90
3842;DHT22;1936;47.074;15.336;2024-01-30T05:32:49;-5.10;99.90
3842;DHT22;1936;47.074;15.336;2024-01-30T05:34:53;-5.10;99.90
3842;DHT22;1936;47.074;15.336;2024-01-30T05:36:56;-5.10;99.90
3842;DHT22;1936;47.074;15.336;2024-01-30T05:39:00;-5.20;99.90
3842;DHT22;1936;47.074;15.336;2024-01-30T05:41:08;-5.20;99.90
3842;DHT22;1936;47.074;15.336;2024-01-30T05:43:12;-5.30;99.90
3842;DHT22;1936;47.074;15.336;2024-01-30T05:45:16;-5.30;99.90
3842;DHT22;1936;47.074;15.336;2024-01-30T05:47:20;-5.40;99.90
3842;DHT22;1936;47.074;15.336;2024-01-30T05:49:22;-5.50;99.90
3842;DHT22;1936;47.074;15.336;2024-01-30T05:51:26;-5.50;99.90
3842;DHT22;1936;47.074;15.336;2024-01-30T05:53:30;-5.50;99.90
3842;DHT22;1936;47.074;15.336;2024-01-30T05:55:33;-5.50;99.90
3842;DHT22;1936;47.074;15.336;2024-01-30T05:57:38;-5.40;99.90
3842;DHT22;1936;47.074;15.336;2024-01-30T05:59:42;-5.40;99.90
3842;DHT22;1936;47.074;15.336;2024-01-30T06:01:46;-5.40;99.90
3842;DHT22;1936;47.074;15.336;2024-01-30T06:03:50;-5.40;99.90
3842;DHT22;1936;47.074;15.336;2024-01-30T06:05:53;-5.40;99.90
3842;DHT22;1936;47.074;15.336;2024-01-30T06:07:57;-5.40;99.90
3842;DHT22;1936;47.074;15.336;2024-01-30T06:10:03;-5.40;99.90
3842;DHT22;1936;47.074;15.336;2024-01-30T06:12:08;-5.40;99.90
3842;DHT22;1936;47.074;15.336;2024-01-30T06:14:15;-5.40;99.90
3842;DHT22;1936;47.074;15.336;2024-01-30T06:16:18;-5.40;99.90
3842;DHT22;1936;47.074;15.336;2024-01-30T06:18:23;-5.40;99.90
3842;DHT22;1936;47.074;15.336;2024-01-30T06:20:29;-5.50;99.90
3842;DHT22;1936;47.074;15.336;2024-01-30T06:22:33;-5.40;99.90
3842;DHT22;1936;47.074;15.336;2024-01-30T06:24:35;-5.40;99.90
3842;DHT22;1936;47.074;15.336;2024-01-30T06:26:39;-5.40;99.90
3842;DHT22;1936;47.074;15.336;2024-01-30T06:28:43;-5.30;99.90
3842;DHT22;1936;47.074;15.336;2024-01-30T06:30:48;-5.40;99.90
3842;DHT22;1936;47.074;15.336;2024-01-30T06:32:52;-5.40;99.90
3842;DHT22;1936;47.074;15.336;2024-01-30T06:34:56;-5.40;99.90
3842;DHT22;1936;47.074;15.336;2024-01-30T06:36:59;-5.40;99.90
3842;DHT22;1936;47.074;15.336;2024-01-30T06:39:03;-5.40;99.90
3842;DHT22;1936;47.074;15.336;2024-01-30T06:41:07;-5.30;99.90
3842;DHT22;1936;47.074;15.336;2024-01-30T06:43:11;-5.30;99.90
3842;DHT22;1936;47.074;15.336;2024-01-30T06:45:14;-5.30;99.90
3842;DHT22;1936;47.074;15.336;2024-01-30T06:47:19;-5.30;99.90
3842;DHT22;1936;47.074;15.336;2024-01-30T06:49:23;-5.20;99.90
3842;DHT22;1936;47.074;15.336;2024-01-30T06:51:27;-5.10;99.90
3842;DHT22;1936;47.074;15.336;2024-01-30T06:53:31;-5.00;99.90
3842;DHT22;1936;47.074;15.336;2024-01-30T06:55:35;-5.00;99.90
3842;DHT22;1936;47.074;15.336;2024-01-30T06:57:37;-4.90;99.90
3842;DHT22;1936;47.074;15.336;2024-01-30T06:59:40;-4.80;99.90
3842;DHT22;1936;47.074;15.336;2024-01-30T07:01:46;-4.80;99.90
3842;DHT22;1936;47.074;15.336;2024-01-30T07:03:50;-4.70;99.90
3842;DHT22;1936;47.074;15.336;2024-01-30T07:05:54;-4.60;99.90
3842;DHT22;1936;47.074;15.336;2024-01-30T07:07:57;-4.60;99.90
3842;DHT22;1936;47.074;15.336;2024-01-30T07:10:01;-4.70;99.90
3842;DHT22;1936;47.074;15.336;2024-01-30T07:12:06;-4.70;99.90
3842;DHT22;1936;47.074;15.336;2024-01-30T07:14:09;-4.70;99.90
3842;DHT22;1936;47.074;15.336;2024-01-30T07:16:13;-4.80;99.90
3842;DHT22;1936;47.074;15.336;2024-01-30T07:18:16;-4.80;99.90
3842;DHT22;1936;47.074;15.336;2024-01-30T07:20:21;-4.60;99.90
3842;DHT22;1936;47.074;15.336;2024-01-30T07:22:26;-4.50;99.90
3842;DHT22;1936;47.074;15.336;2024-01-30T07:24:29;-4.40;99.90
3842;DHT22;1936;47.074;15.336;2024-01-30T07:26:32;-4.30;99.90
3842;DHT22;1936;47.074;15.336;2024-01-30T07:28:37;-4.30;99.90
3842;DHT22;1936;47.074;15.336;2024-01-30T07:30:41;-4.30;99.90
3842;DHT22;1936;47.074;15.336;2024-01-30T07:32:44;-4.30;99.90
3842;DHT22;1936;47.074;15.336;2024-01-30T07:34:47;-4.30;99.90
3842;DHT22;1936;47.074;15.336;2024-01-30T07:37:09;-4.30;99.90
3842;DHT22;1936;47.074;15.336;2024-01-30T07:39:15;-4.30;99.90
3842;DHT22;1936;47.074;15.336;2024-01-30T07:41:18;-4.10;99.90
3842;DHT22;1936;47.074;15.336;2024-01-30T07:43:22;-4.00;99.90
3842;DHT22;1936;47.074;15.336;2024-01-30T07:45:25;-3.90;99.90
3842;DHT22;1936;47.074;15.336;2024-01-30T07:47:29;-3.80;99.90
3842;DHT22;1936;47.074;15.336;2024-01-30T07:49:33;-3.70;99.90
3842;DHT22;1936;47.074;15.336;2024-01-30T07:51:36;-3.60;99.90
3842;DHT22;1936;47.074;15.336;2024-01-30T07:53:44;-3.50;99.90
3842;DHT22;1936;47.074;15.336;2024-01-30T07:56:01;-3.40;99.90
3842;DHT22;1936;47.074;15.336;2024-01-30T07:58:04;-3.30;99.90
3842;DHT22;1936;47.074;15.336;2024-01-30T08:00:08;-3.20;99.90
3842;DHT22;1936;47.074;15.336;2024-01-30T08:02:12;-3.10;99.90
3842;DHT22;1936;47.074;15.336;2024-01-30T08:04:16;-3.00;99.90
3842;DHT22;1936;47.074;15.336;2024-01-30T08:06:20;-2.90;99.90
3842;DHT22;1936;47.074;15.336;2024-01-30T08:08:23;-2.70;99.90
3842;DHT22;1936;47.074;15.336;2024-01-30T08:10:29;-2.60;99.90
3842;DHT22;1936;47.074;15.336;2024-01-30T08:12:32;-2.60;99.90
3842;DHT22;1936;47.074;15.336;2024-01-30T08:14:35;-2.50;99.90
3842;DHT22;1936;47.074;15.336;2024-01-30T08:16:39;-2.40;99.90
3842;DHT22;1936;47.074;15.336;2024-01-30T08:18:42;-2.30;99.90
3842;DHT22;1936;47.074;15.336;2024-01-30T08:20:44;-2.10;99.90
3842;DHT22;1936;47.074;15.336;2024-01-30T08:22:48;-1.90;99.90
3842;DHT22;1936;47.074;15.336;2024-01-30T08:24:51;-1.90;99.90
3842;DHT22;1936;47.074;15.336;2024-01-30T08:26:56;-1.80;99.90
3842;DHT22;1936;47.074;15.336;2024-01-30T08:29:00;-1.70;99.90
3842;DHT22;1936;47.074;15.336;2024-01-30T08:31:03;-1.60;99.90
3842;DHT22;1936;47.074;15.336;2024-01-30T08:33:07;-1.30;99.90
3842;DHT22;1936;47.074;15.336;2024-01-30T08:35:10;-1.20;99.90
3842;DHT22;1936;47.074;15.336;2024-01-30T08:37:16;-1.10;99.90
3842;DHT22;1936;47.074;15.336;2024-01-30T08:39:19;-0.90;99.90
3842;DHT22;1936;47.074;15.336;2024-01-30T08:41:23;-0.30;99.90
3842;DHT22;1936;47.074;15.336;2024-01-30T08:43:28;-0.10;99.90
3842;DHT22;1936;47.074;15.336;2024-01-30T08:45:31;-0.10;99.90
3842;DHT22;1936;47.074;15.336;2024-01-30T08:47:34;-0.10;99.90
3842;DHT22;1936;47.074;15.336;2024-01-30T08:49:37;0.10;99.90
3842;DHT22;1936;47.074;15.336;2024-01-30T08:53:44;2.10;99.90
3842;DHT22;1936;47.074;15.336;2024-01-30T08:55:48;5.60;99.90
3842;DHT22;1936;47.074;15.336;2024-01-30T08:57:50;8.30;90.40
3842;DHT22;1936;47.074;15.336;2024-01-30T08:59:56;9.00;70.70
3842;DHT22;1936;47.074;15.336;2024-01-30T09:01:59;10.80;66.30
3842;DHT22;1936;47.074;15.336;2024-01-30T09:04:13;11.70;59.00
3842;DHT22;1936;47.074;15.336;2024-01-30T09:06:17;12.60;55.50
3842;DHT22;1936;47.074;15.336;2024-01-30T09:08:20;13.40;52.40
3842;DHT22;1936;47.074;15.336;2024-01-30T09:10:24;14.10;51.40
3842;DHT22;1936;47.074;15.336;2024-01-30T09:12:29;14.40;48.90
3842;DHT22;1936;47.074;15.336;2024-01-30T09:14:32;14.10;44.60
3842;DHT22;1936;47.074;15.336;2024-01-30T09:16:37;14.30;47.40
3842;DHT22;1936;47.074;15.336;2024-01-30T09:18:40;15.00;45.40
3842;DHT22;1936;47.074;15.336;2024-01-30T09:20:44;15.40;43.10
3842;DHT22;1936;47.074;15.336;2024-01-30T09:22:49;15.00;44.30
3842;DHT22;1936;47.074;15.336;2024-01-30T09:24:52;15.30;45.00
3842;DHT22;1936;47.074;15.336;2024-01-30T09:26:56;15.80;44.00
3842;DHT22;1936;47.074;15.336;2024-01-30T09:29:00;16.30;44.10
3842;DHT22;1936;47.074;15.336;2024-01-30T09:31:02;16.90;43.20
3842;DHT22;1936;47.074;15.336;2024-01-30T09:33:08;17.00;42.20
3842;DHT22;1936;47.074;15.336;2024-01-30T09:35:12;17.00;40.80
3842;DHT22;1936;47.074;15.336;2024-01-30T09:37:16;16.50;42.50
3842;DHT22;1936;47.074;15.336;2024-01-30T09:39:20;17.10;41.50
3842;DHT22;1936;47.074;15.336;2024-01-30T09:41:24;17.80;41.70
3842;DHT22;1936;47.074;15.336;2024-01-30T09:43:32;17.80;39.20
3842;DHT22;1936;47.074;15.336;2024-01-30T09:45:37;17.60;39.90
3842;DHT22;1936;47.074;15.336;2024-01-30T09:47:43;18.40;38.20
3842;DHT22;1936;47.074;15.336;2024-01-30T09:49:48;18.50;36.60
3842;DHT22;1936;47.074;15.336;2024-01-30T09:51:53;18.60;36.40
3842;DHT22;1936;47.074;15.336;2024-01-30T09:53:58;17.90;33.40
3842;DHT22;1936;47.074;15.336;2024-01-30T09:56:02;17.80;35.90
3842;DHT22;1936;47.074;15.336;2024-01-30T09:58:06;17.30;33.20
3842;DHT22;1936;47.074;15.336;2024-01-30T10:00:11;17.80;36.50
3842;DHT22;1936;47.074;15.336;2024-01-30T10:02:15;18.30;34.40
3842;DHT22;1936;47.074;15.336;2024-01-30T10:04:19;18.10;34.90
3842;DHT22;1936;47.074;15.336;2024-01-30T10:06:24;19.30;32.70
3842;DHT22;1936;47.074;15.336;2024-01-30T10:08:28;19.40;32.60
3842;DHT22;1936;47.074;15.336;2024-01-30T10:10:32;18.80;33.90
3842;DHT22;1936;47.074;15.336;2024-01-30T10:12:35;19.50;32.70
3842;DHT22;1936;47.074;15.336;2024-01-30T10:14:39;18.60;33.50
3842;DHT22;1936;47.074;15.336;2024-01-30T10:16:42;17.80;33.20
3842;DHT22;1936;47.074;15.336;2024-01-30T10:18:47;16.90;35.50
3842;DHT22;1936;47.074;15.336;2024-01-30T10:20:51;16.30;36.60
3842;DHT22;1936;47.074;15.336;2024-01-30T10:22:56;15.80;35.70
3842;DHT22;1936;47.074;15.336;2024-01-30T10:25:00;16.10;36.00
3842;DHT22;1936;47.074;15.336;2024-01-30T10:27:07;16.60;36.20
3842;DHT22;1936;47.074;15.336;2024-01-30T10:29:11;18.30;34.60
3842;DHT22;1936;47.074;15.336;2024-01-30T10:31:17;18.10;32.20
3842;DHT22;1936;47.074;15.336;2024-01-30T10:33:21;17.50;33.20
3842;DHT22;1936;47.074;15.336;2024-01-30T10:35:24;17.90;34.60
3842;DHT22;1936;47.074;15.336;2024-01-30T10:37:30;17.40;35.10
3842;DHT22;1936;47.074;15.336;2024-01-30T10:39:38;17.50;33.00
3842;DHT22;1936;47.074;15.336;2024-01-30T10:41:44;19.50;30.50
3842;DHT22;1936;47.074;15.336;2024-01-30T10:43:55;16.70;32.90
3842;DHT22;1936;47.074;15.336;2024-01-30T10:46:06;17.60;35.50
3842;DHT22;1936;47.074;15.336;2024-01-30T10:48:12;18.00;33.00
3842;DHT22;1936;47.074;15.336;2024-01-30T10:50:16;17.90;33.20
3842;DHT22;1936;47.074;15.336;2024-01-30T10:52:21;18.20;34.30
3842;DHT22;1936;47.074;15.336;2024-01-30T10:54:27;15.50;35.50
3842;DHT22;1936;47.074;15.336;2024-01-30T10:56:32;15.50;37.00
3842;DHT22;1936;47.074;15.336;2024-01-30T10:58:36;14.80;38.40
3842;DHT22;1936;47.074;15.336;2024-01-30T11:00:40;13.90;41.60
3842;DHT22;1936;47.074;15.336;2024-01-30T11:02:46;12.80;41.60
3842;DHT22;1936;47.074;15.336;2024-01-30T11:04:50;12.70;44.80
3842;DHT22;1936;47.074;15.336;2024-01-30T11:06:56;12.90;43.10
3842;DHT22;1936;47.074;15.336;2024-01-30T11:09:00;13.00;43.30
3842;DHT22;1936;47.074;15.336;2024-01-30T11:11:09;12.60;43.50
3842;DHT22;1936;47.074;15.336;2024-01-30T11:13:19;12.20;44.20
3842;DHT22;1936;47.074;15.336;2024-01-30T11:15:24;12.50;45.30
3842;DHT22;1936;47.074;15.336;2024-01-30T11:17:28;12.60;44.70
3842;DHT22;1936;47.074;15.336;2024-01-30T11:19:31;13.00;43.80
3842;DHT22;1936;47.074;15.336;2024-01-30T11:21:41;12.90;43.20
3842;DHT22;1936;47.074;15.336;2024-01-30T11:23:44;12.90;43.20
3842;DHT22;1936;47.074;15.336;2024-01-30T11:25:48;13.20;43.20
3842;DHT22;1936;47.074;15.336;2024-01-30T11:27:53;13.20;42.90
3842;DHT22;1936;47.074;15.336;2024-01-30T11:30:02;13.60;41.60
3842;DHT22;1936;47.074;15.336;2024-01-30T11:32:06;12.90;42.80
3842;DHT22;1936;47.074;15.336;2024-01-30T11:34:10;11.90;45.10
3842;DHT22;1936;47.074;15.336;2024-01-30T11:36:15;11.90;46.10
3842;DHT22;1936;47.074;15.336;2024-01-30T11:38:21;11.20;46.60
3842;DHT22;1936;47.074;15.336;2024-01-30T11:40:24;11.50;47.00
3842;DHT22;1936;47.074;15.336;2024-01-30T11:42:30;11.50;46.20
3842;DHT22;1936;47.074;15.336;2024-01-30T11:44:32;12.00;46.30
3842;DHT22;1936;47.074;15.336;2024-01-30T11:46:37;12.30;46.50
3842;DHT22;1936;47.074;15.336;2024-01-30T11:48:41;11.90;46.20
3842;DHT22;1936;47.074;15.336;2024-01-30T11:50:44;12.20;45.70
3842;DHT22;1936;47.074;15.336;2024-01-30T11:52:48;12.20;46.80
3842;DHT22;1936;47.074;15.336;2024-01-30T11:54:53;12.40;46.10
3842;DHT22;1936;47.074;15.336;2024-01-30T11:56:57;12.80;44.80
3842;DHT22;1936;47.074;15.336;2024-01-30T11:59:01;13.40;42.70
3842;DHT22;1936;47.074;15.336;2024-01-30T12:01:04;13.00;43.00
3842;DHT22;1936;47.074;15.336;2024-01-30T12:03:11;12.80;43.60
3842;DHT22;1936;47.074;15.336;2024-01-30T12:09:22;14.80;39.40
3842;DHT22;1936;47.074;15.336;2024-01-30T12:11:26;14.90;40.20
3842;DHT22;1936;47.074;15.336;2024-01-30T12:13:32;13.90;42.50
3842;DHT22;1936;47.074;15.336;2024-01-30T12:15:36;12.40;44.40
3842;DHT22;1936;47.074;15.336;2024-01-30T12:17:38;12.50;46.20
3842;DHT22;1936;47.074;15.336;2024-01-30T12:19:43;12.30;47.00
3842;DHT22;1936;47.074;15.336;2024-01-30T12:21:46;12.00;46.90
3842;DHT22;1936;47.074;15.336;2024-01-30T12:23:49;11.60;48.30
3842;DHT22;1936;47.074;15.336;2024-01-30T12:25:52;11.70;48.70
3842;DHT22;1936;47.074;15.336;2024-01-30T12:27:56;11.40;47.90
3842;DHT22;1936;47.074;15.336;2024-01-30T12:30:00;11.40;46.80
3842;DHT22;1936;47.074;15.336;2024-01-30T12:32:04;11.30;47.60
3842;DHT22;1936;47.074;15.336;2024-01-30T12:34:08;11.60;46.70
3842;DHT22;1936;47.074;15.336;2024-01-30T12:36:13;11.60;46.80
3842;DHT22;1936;47.074;15.336;2024-01-30T12:38:18;11.80;47.30
3842;DHT22;1936;47.074;15.336;2024-01-30T12:40:22;12.60;45.50
3842;DHT22;1936;47.074;15.336;2024-01-30T12:42:27;12.20;46.80
3842;DHT22;1936;47.074;15.336;2024-01-30T12:44:31;12.10;46.80
3842;DHT22;1936;47.074;15.336;2024-01-30T12:46:35;12.60;46.50
3842;DHT22;1936;47.074;15.336;2024-01-30T12:48:39;12.60;46.40
3842;DHT22;1936;47.074;15.336;2024-01-30T12:50:42;13.30;43.60
3842;DHT22;1936;47.074;15.336;2024-01-30T12:52:47;13.40;43.90
3842;DHT22;1936;47.074;15.336;2024-01-30T12:54:52;13.70;43.90
3842;DHT22;1936;47.074;15.336;2024-01-30T12:56:55;15.00;42.30
3842;DHT22;1936;47.074;15.336;2024-01-30T12:59:00;15.50;40.10
3842;DHT22;1936;47.074;15.336;2024-01-30T13:01:03;16.10;40.00
3842;DHT22;1936;47.074;15.336;2024-01-30T13:03:07;16.00;39.20
3842;DHT22;1936;47.074;15.336;2024-01-30T13:05:10;15.80;38.90
3842;DHT22;1936;47.074;15.336;2024-01-30T13:07:14;15.90;40.10
3842;DHT22;1936;47.074;15.336;2024-01-30T13:09:19;15.80;39.40
3842;DHT22;1936;47.074;15.336;2024-01-30T13:11:23;15.80;38.90
3842;DHT22;1936;47.074;15.336;2024-01-30T13:13:27;16.10;37.60
3842;DHT22;1936;47.074;15.336;2024-01-30T13:15:31;15.50;38.10
3842;DHT22;1936;47.074;15.336;2024-01-30T13:17:35;15.80;39.10
3842;DHT22;1936;47.074;15.336;2024-01-30T13:19:38;16.40;38.30
3842;DHT22;1936;47.074;15.336;2024-01-30T13:21:42;16.20;38.70
3842;DHT22;1936;47.074;15.336;2024-01-30T13:23:46;15.90;40.50
3842;DHT22;1936;47.074;15.336;2024-01-30T13:25:49;15.60;39.80